sensor_id;sensor_type;location;lat;lon;timestamp;P1;durP1;ratioP1;P2;durP2;ratioP2
5014;SDS011;2526;51.060;4.228;2023-07-16T00:01:45;10.30;;;1.10;;
5014;SDS011;2526;51.060;4.228;2023-07-16T00:04:10;6.93;;;1.50;;
5014;SDS011;2526;51.060;4.228;2023-07-16T00:06:35;3.20;;;1.52;;
5014;SDS011;2526;51.060;4.228;2023-07-16T00:09:01;2.10;;;1.10;;
5014;SDS011;2526;51.060;4.228;2023-07-16T00:11:26;2.00;;;0.85;;
5014;SDS011;2526;51.060;4.228;2023-07-16T00:13:52;9.05;;;1.52;;
5014;SDS011;2526;51.060;4.228;2023-07-16T00:16:17;7.43;;;1.50;;
5014;SDS011;2526;51.060;4.228;2023-07-16T00:18:46;3.33;;;0.82;;
5014;SDS011;2526;51.060;4.228;2023-07-16T00:21:11;5.70;;;1.67;;
5014;SDS011;2526;51.060;4.228;2023-07-16T00:23:37;3.25;;;0.82;;
5014;SDS011;2526;51.060;4.228;2023-07-16T00:26:02;5.43;;;1.13;;
5014;SDS011;2526;51.060;4.228;2023-07-16T00:28:29;2.33;;;1.08;;
5014;SDS011;2526;51.060;4.228;2023-07-16T00:30:54;1.88;;;0.98;;
5014;SDS011;2526;51.060;4.228;2023-07-16T00:33:19;2.78;;;1.02;;
5014;SDS011;2526;51.060;4.228;2023-07-16T00:35:48;3.53;;;1.38;;
5014;SDS011;2526;51.060;4.228;2023-07-16T00:38:14;5.65;;;0.88;;
5014;SDS011;2526;51.060;4.228;2023-07-16T00:40:40;1.67;;;1.05;;
5014;SDS011;2526;51.060;4.228;2023-07-16T00:43:05;5.28;;;1.42;;
5014;SDS011;2526;51.060;4.228;2023-07-16T00:45:31;1.90;;;1.20;;
5014;SDS011;2526;51.060;4.228;2023-07-16T00:47:56;1.58;;;1.05;;
5014;SDS011;2526;51.060;4.228;2023-07-16T00:50:22;4.75;;;1.35;;
5014;SDS011;2526;51.060;4.228;2023-07-16T00:52:48;4.00;;;1.17;;
5014;SDS011;2526;51.060;4.228;2023-07-16T00:55:13;0.77;;;0.73;;
5014;SDS011;2526;51.060;4.228;2023-07-16T00:57:39;5.22;;;1.40;;
5014;SDS011;2526;51.060;4.228;2023-07-16T01:00:05;6.72;;;1.70;;
5014;SDS011;2526;51.060;4.228;2023-07-16T01:02:31;1.60;;;1.02;;
5014;SDS011;2526;51.060;4.228;2023-07-16T01:04:57;4.10;;;1.20;;
5014;SDS011;2526;51.060;4.228;2023-07-16T01:07:24;1.73;;;1.15;;
5014;SDS011;2526;51.060;4.228;2023-07-16T01:09:50;2.20;;;1.25;;
5014;SDS011;2526;51.060;4.228;2023-07-16T01:12:16;2.70;;;1.05;;
5014;SDS011;2526;51.060;4.228;2023-07-16T01:14:45;3.78;;;1.00;;
5014;SDS011;2526;51.060;4.228;2023-07-16T01:17:10;4.10;;;1.08;;
5014;SDS011;2526;51.060;4.228;2023-07-16T01:19:36;3.80;;;1.13;;
5014;SDS011;2526;51.060;4.228;2023-07-16T01:24:54;3.08;;;1.38;;
5014;SDS011;2526;51.060;4.228;2023-07-16T01:30:02;2.60;;;1.50;;
5014;SDS011;2526;51.060;4.228;2023-07-16T01:32:31;2.42;;;0.80;;
5014;SDS011;2526;51.060;4.228;2023-07-16T01:34:59;2.50;;;1.05;;
5014;SDS011;2526;51.060;4.228;2023-07-16T01:37:25;8.77;;;1.77;;
5014;SDS011;2526;51.060;4.228;2023-07-16T01:39:50;2.42;;;1.15;;
5014;SDS011;2526;51.060;4.228;2023-07-16T01:42:16;2.67;;;1.63;;
5014;SDS011;2526;51.060;4.228;2023-07-16T01:44:41;2.33;;;1.35;;
5014;SDS011;2526;51.060;4.228;2023-07-16T01:49:35;6.60;;;1.45;;
5014;SDS011;2526;51.060;4.228;2023-07-16T01:52:01;6.35;;;0.88;;
5014;SDS011;2526;51.060;4.228;2023-07-16T01:54:27;2.13;;;1.27;;
5014;SDS011;2526;51.060;4.228;2023-07-16T01:56:52;7.00;;;1.40;;
5014;SDS011;2526;51.060;4.228;2023-07-16T01:59:17;2.42;;;1.08;;
5014;SDS011;2526;51.060;4.228;2023-07-16T02:01:43;3.28;;;0.90;;
5014;SDS011;2526;51.060;4.228;2023-07-16T02:04:08;3.83;;;1.10;;
5014;SDS011;2526;51.060;4.228;2023-07-16T02:06:34;5.75;;;1.60;;
5014;SDS011;2526;51.060;4.228;2023-07-16T02:08:59;5.72;;;1.55;;
5014;SDS011;2526;51.060;4.228;2023-07-16T02:11:25;3.05;;;1.20;;
5014;SDS011;2526;51.060;4.228;2023-07-16T02:13:50;10.32;;;1.55;;
5014;SDS011;2526;51.060;4.228;2023-07-16T02:16:16;5.30;;;1.52;;
5014;SDS011;2526;51.060;4.228;2023-07-16T02:18:41;7.30;;;1.80;;
5014;SDS011;2526;51.060;4.228;2023-07-16T02:21:07;5.18;;;1.77;;
5014;SDS011;2526;51.060;4.228;2023-07-16T02:23:32;3.45;;;1.48;;
5014;SDS011;2526;51.060;4.228;2023-07-16T02:25:58;3.92;;;2.03;;
5014;SDS011;2526;51.060;4.228;2023-07-16T02:28:23;3.00;;;1.40;;
5014;SDS011;2526;51.060;4.228;2023-07-16T02:30:49;3.83;;;2.10;;
5014;SDS011;2526;51.060;4.228;2023-07-16T02:33:15;3.33;;;1.85;;
5014;SDS011;2526;51.060;4.228;2023-07-16T02:35:40;7.43;;;1.60;;
5014;SDS011;2526;51.060;4.228;2023-07-16T02:38:06;4.93;;;1.65;;
5014;SDS011;2526;51.060;4.228;2023-07-16T02:40:31;5.28;;;1.83;;
5014;SDS011;2526;51.060;4.228;2023-07-16T02:42:56;4.05;;;1.10;;
5014;SDS011;2526;51.060;4.228;2023-07-16T02:45:22;5.68;;;1.80;;
5014;SDS011;2526;51.060;4.228;2023-07-16T02:47:47;5.05;;;1.65;;
5014;SDS011;2526;51.060;4.228;2023-07-16T02:50:13;3.85;;;1.83;;
5014;SDS011;2526;51.060;4.228;2023-07-16T02:52:38;11.02;;;2.00;;
5014;SDS011;2526;51.060;4.228;2023-07-16T02:55:04;3.45;;;1.77;;
5014;SDS011;2526;51.060;4.228;2023-07-16T02:57:29;5.97;;;2.83;;
5014;SDS011;2526;51.060;4.228;2023-07-16T02:59:55;8.43;;;2.78;;
5014;SDS011;2526;51.060;4.228;2023-07-16T03:02:20;4.25;;;1.70;;
5014;SDS011;2526;51.060;4.228;2023-07-16T03:04:46;14.50;;;2.08;;
5014;SDS011;2526;51.060;4.228;2023-07-16T03:07:11;1.70;;;1.33;;
5014;SDS011;2526;51.060;4.228;2023-07-16T03:09:37;3.28;;;1.77;;
5014;SDS011;2526;51.060;4.228;2023-07-16T03:12:02;5.25;;;2.30;;
5014;SDS011;2526;51.060;4.228;2023-07-16T03:14:28;5.30;;;1.80;;
5014;SDS011;2526;51.060;4.228;2023-07-16T03:16:53;6.57;;;2.10;;
5014;SDS011;2526;51.060;4.228;2023-07-16T03:19:19;5.25;;;1.42;;
5014;SDS011;2526;51.060;4.228;2023-07-16T03:21:44;1.25;;;1.15;;
5014;SDS011;2526;51.060;4.228;2023-07-16T03:24:11;9.73;;;3.65;;
5014;SDS011;2526;51.060;4.228;2023-07-16T03:26:37;5.18;;;2.67;;
5014;SDS011;2526;51.060;4.228;2023-07-16T03:29:02;6.15;;;1.90;;
5014;SDS011;2526;51.060;4.228;2023-07-16T03:31:28;3.80;;;2.28;;
5014;SDS011;2526;51.060;4.228;2023-07-16T03:33:53;6.97;;;2.75;;
5014;SDS011;2526;51.060;4.228;2023-07-16T03:36:19;5.05;;;2.17;;
5014;SDS011;2526;51.060;4.228;2023-07-16T03:38:44;11.85;;;2.67;;
5014;SDS011;2526;51.060;4.228;2023-07-16T03:41:10;5.95;;;3.13;;
5014;SDS011;2526;51.060;4.228;2023-07-16T03:43:36;7.70;;;2.33;;
5014;SDS011;2526;51.060;4.228;2023-07-16T03:46:01;4.75;;;2.35;;
5014;SDS011;2526;51.060;4.228;2023-07-16T03:48:27;4.07;;;2.83;;
5014;SDS011;2526;51.060;4.228;2023-07-16T03:50:53;6.78;;;3.90;;
5014;SDS011;2526;51.060;4.228;2023-07-16T03:53:18;7.60;;;3.58;;
5014;SDS011;2526;51.060;4.228;2023-07-16T03:55:43;15.68;;;2.47;;
5014;SDS011;2526;51.060;4.228;2023-07-16T03:58:09;5.55;;;3.58;;
5014;SDS011;2526;51.060;4.228;2023-07-16T04:00:34;8.63;;;2.38;;
5014;SDS011;2526;51.060;4.228;2023-07-16T04:03:00;3.60;;;1.92;;
5014;SDS011;2526;51.060;4.228;2023-07-16T04:05:26;4.22;;;2.15;;
5014;SDS011;2526;51.060;4.228;2023-07-16T04:07:51;5.63;;;2.97;;
5014;SDS011;2526;51.060;4.228;2023-07-16T04:10:17;9.85;;;2.90;;
5014;SDS011;2526;51.060;4.228;2023-07-16T04:12:42;6.45;;;2.38;;
5014;SDS011;2526;51.060;4.228;2023-07-16T04:15:08;7.47;;;2.92;;
5014;SDS011;2526;51.060;4.228;2023-07-16T04:17:36;9.35;;;3.28;;
5014;SDS011;2526;51.060;4.228;2023-07-16T04:20:03;7.07;;;3.22;;
5014;SDS011;2526;51.060;4.228;2023-07-16T04:22:32;17.48;;;3.55;;
5014;SDS011;2526;51.060;4.228;2023-07-16T04:24:58;7.13;;;2.88;;
5014;SDS011;2526;51.060;4.228;2023-07-16T04:27:23;7.85;;;3.20;;
5014;SDS011;2526;51.060;4.228;2023-07-16T04:29:49;10.50;;;2.80;;
5014;SDS011;2526;51.060;4.228;2023-07-16T04:32:14;5.35;;;2.78;;
5014;SDS011;2526;51.060;4.228;2023-07-16T04:34:40;6.10;;;2.70;;
5014;SDS011;2526;51.060;4.228;2023-07-16T04:37:05;10.93;;;3.72;;
5014;SDS011;2526;51.060;4.228;2023-07-16T04:39:31;6.20;;;3.03;;
5014;SDS011;2526;51.060;4.228;2023-07-16T04:41:56;7.80;;;2.70;;
5014;SDS011;2526;51.060;4.228;2023-07-16T04:44:23;23.45;;;4.20;;
5014;SDS011;2526;51.060;4.228;2023-07-16T04:46:49;8.82;;;3.92;;
5014;SDS011;2526;51.060;4.228;2023-07-16T04:49:15;14.25;;;3.60;;
5014;SDS011;2526;51.060;4.228;2023-07-16T04:51:41;10.93;;;3.60;;
5014;SDS011;2526;51.060;4.228;2023-07-16T04:54:06;6.47;;;3.20;;
5014;SDS011;2526;51.060;4.228;2023-07-16T04:56:33;5.78;;;2.60;;
5014;SDS011;2526;51.060;4.228;2023-07-16T04:58:59;13.82;;;3.60;;
5014;SDS011;2526;51.060;4.228;2023-07-16T05:01:24;7.97;;;2.67;;
5014;SDS011;2526;51.060;4.228;2023-07-16T05:03:52;10.18;;;3.50;;
5014;SDS011;2526;51.060;4.228;2023-07-16T05:06:17;11.63;;;3.72;;
5014;SDS011;2526;51.060;4.228;2023-07-16T05:08:43;4.82;;;2.78;;
5014;SDS011;2526;51.060;4.228;2023-07-16T05:11:08;7.68;;;3.50;;
5014;SDS011;2526;51.060;4.228;2023-07-16T05:13:34;9.23;;;3.45;;
5014;SDS011;2526;51.060;4.228;2023-07-16T05:15:59;7.32;;;3.92;;
5014;SDS011;2526;51.060;4.228;2023-07-16T05:18:25;8.57;;;3.58;;
5014;SDS011;2526;51.060;4.228;2023-07-16T05:20:50;9.55;;;4.13;;
5014;SDS011;2526;51.060;4.228;2023-07-16T05:23:16;6.40;;;2.90;;
5014;SDS011;2526;51.060;4.228;2023-07-16T05:25:48;6.20;;;3.95;;
5014;SDS011;2526;51.060;4.228;2023-07-16T05:28:14;7.90;;;3.40;;
5014;SDS011;2526;51.060;4.228;2023-07-16T05:30:39;6.45;;;3.53;;
5014;SDS011;2526;51.060;4.228;2023-07-16T05:33:05;8.80;;;3.67;;
5014;SDS011;2526;51.060;4.228;2023-07-16T05:35:30;8.23;;;4.28;;
5014;SDS011;2526;51.060;4.228;2023-07-16T05:37:56;4.88;;;3.25;;
5014;SDS011;2526;51.060;4.228;2023-07-16T05:40:22;7.63;;;3.05;;
5014;SDS011;2526;51.060;4.228;2023-07-16T05:42:47;7.85;;;2.70;;
5014;SDS011;2526;51.060;4.228;2023-07-16T05:45:13;7.13;;;4.00;;
5014;SDS011;2526;51.060;4.228;2023-07-16T05:47:38;14.45;;;3.60;;
5014;SDS011;2526;51.060;4.228;2023-07-16T05:50:04;10.35;;;4.53;;
5014;SDS011;2526;51.060;4.228;2023-07-16T05:52:29;9.90;;;3.42;;
5014;SDS011;2526;51.060;4.228;2023-07-16T05:54:55;11.30;;;3.00;;
5014;SDS011;2526;51.060;4.228;2023-07-16T05:57:20;8.85;;;4.15;;
5014;SDS011;2526;51.060;4.228;2023-07-16T05:59:46;4.60;;;2.90;;
5014;SDS011;2526;51.060;4.228;2023-07-16T06:02:11;7.75;;;3.03;;
5014;SDS011;2526;51.060;4.228;2023-07-16T06:04:37;13.65;;;3.38;;
5014;SDS011;2526;51.060;4.228;2023-07-16T06:07:03;18.25;;;4.68;;
5014;SDS011;2526;51.060;4.228;2023-07-16T06:09:29;5.53;;;3.17;;
5014;SDS011;2526;51.060;4.228;2023-07-16T06:11:54;11.55;;;3.53;;
5014;SDS011;2526;51.060;4.228;2023-07-16T06:14:20;7.50;;;3.25;;
5014;SDS011;2526;51.060;4.228;2023-07-16T06:16:45;5.85;;;3.60;;
5014;SDS011;2526;51.060;4.228;2023-07-16T06:19:11;9.05;;;3.20;;
5014;SDS011;2526;51.060;4.228;2023-07-16T06:21:36;9.52;;;4.05;;
5014;SDS011;2526;51.060;4.228;2023-07-16T06:24:01;10.88;;;4.00;;
5014;SDS011;2526;51.060;4.228;2023-07-16T06:26:28;7.10;;;3.17;;
5014;SDS011;2526;51.060;4.228;2023-07-16T06:28:53;7.95;;;3.45;;
5014;SDS011;2526;51.060;4.228;2023-07-16T06:31:18;5.28;;;3.85;;
5014;SDS011;2526;51.060;4.228;2023-07-16T06:33:44;8.35;;;2.97;;
5014;SDS011;2526;51.060;4.228;2023-07-16T06:36:12;8.27;;;3.38;;
5014;SDS011;2526;51.060;4.228;2023-07-16T06:38:37;8.65;;;3.33;;
5014;SDS011;2526;51.060;4.228;2023-07-16T06:41:03;7.72;;;3.22;;
5014;SDS011;2526;51.060;4.228;2023-07-16T06:43:29;9.57;;;3.90;;
5014;SDS011;2526;51.060;4.228;2023-07-16T06:45:54;5.38;;;2.53;;
5014;SDS011;2526;51.060;4.228;2023-07-16T06:48:20;9.00;;;5.10;;
5014;SDS011;2526;51.060;4.228;2023-07-16T06:50:46;14.00;;;3.95;;
5014;SDS011;2526;51.060;4.228;2023-07-16T06:53:11;11.35;;;3.78;;
5014;SDS011;2526;51.060;4.228;2023-07-16T06:55:37;10.40;;;4.38;;
5014;SDS011;2526;51.060;4.228;2023-07-16T06:58:03;7.80;;;3.60;;
5014;SDS011;2526;51.060;4.228;2023-07-16T07:00:28;9.05;;;3.97;;
5014;SDS011;2526;51.060;4.228;2023-07-16T07:02:54;9.30;;;3.05;;
5014;SDS011;2526;51.060;4.228;2023-07-16T07:05:19;5.60;;;3.03;;
5014;SDS011;2526;51.060;4.228;2023-07-16T07:07:45;14.00;;;3.40;;
5014;SDS011;2526;51.060;4.228;2023-07-16T07:10:13;11.55;;;3.17;;
5014;SDS011;2526;51.060;4.228;2023-07-16T07:12:39;5.85;;;3.05;;
5014;SDS011;2526;51.060;4.228;2023-07-16T07:15:06;15.88;;;3.80;;
5014;SDS011;2526;51.060;4.228;2023-07-16T07:17:33;5.72;;;3.45;;
5014;SDS011;2526;51.060;4.228;2023-07-16T07:20:00;5.50;;;3.17;;
5014;SDS011;2526;51.060;4.228;2023-07-16T07:22:25;13.50;;;3.83;;
5014;SDS011;2526;51.060;4.228;2023-07-16T07:24:51;15.15;;;4.60;;
5014;SDS011;2526;51.060;4.228;2023-07-16T07:27:17;4.20;;;3.03;;
5014;SDS011;2526;51.060;4.228;2023-07-16T07:29:43;9.43;;;3.25;;
5014;SDS011;2526;51.060;4.228;2023-07-16T07:32:08;7.32;;;3.83;;
5014;SDS011;2526;51.060;4.228;2023-07-16T07:34:33;9.73;;;3.67;;
5014;SDS011;2526;51.060;4.228;2023-07-16T07:36:59;8.75;;;4.05;;
5014;SDS011;2526;51.060;4.228;2023-07-16T07:39:24;8.70;;;3.95;;
5014;SDS011;2526;51.060;4.228;2023-07-16T07:41:50;11.30;;;4.20;;
5014;SDS011;2526;51.060;4.228;2023-07-16T07:44:15;9.38;;;3.90;;
5014;SDS011;2526;51.060;4.228;2023-07-16T07:46:42;11.45;;;3.85;;
5014;SDS011;2526;51.060;4.228;2023-07-16T07:49:08;5.15;;;2.92;;
5014;SDS011;2526;51.060;4.228;2023-07-16T07:51:34;7.50;;;3.83;;
5014;SDS011;2526;51.060;4.228;2023-07-16T07:53:59;9.18;;;3.03;;
5014;SDS011;2526;51.060;4.228;2023-07-16T07:56:25;9.48;;;3.17;;
5014;SDS011;2526;51.060;4.228;2023-07-16T07:58:50;10.85;;;3.15;;
5014;SDS011;2526;51.060;4.228;2023-07-16T08:01:16;9.27;;;2.65;;
5014;SDS011;2526;51.060;4.228;2023-07-16T08:03:42;7.38;;;3.40;;
5014;SDS011;2526;51.060;4.228;2023-07-16T08:06:08;6.05;;;3.35;;
5014;SDS011;2526;51.060;4.228;2023-07-16T08:08:36;14.18;;;4.22;;
5014;SDS011;2526;51.060;4.228;2023-07-16T08:11:01;10.88;;;2.92;;
5014;SDS011;2526;51.060;4.228;2023-07-16T08:13:28;10.75;;;3.22;;
5014;SDS011;2526;51.060;4.228;2023-07-16T08:15:54;7.88;;;3.00;;
5014;SDS011;2526;51.060;4.228;2023-07-16T08:18:19;4.20;;;2.05;;
5014;SDS011;2526;51.060;4.228;2023-07-16T08:20:46;6.30;;;3.55;;
5014;SDS011;2526;51.060;4.228;2023-07-16T08:23:11;5.25;;;2.90;;
5014;SDS011;2526;51.060;4.228;2023-07-16T08:25:37;7.45;;;2.70;;
5014;SDS011;2526;51.060;4.228;2023-07-16T08:28:02;4.97;;;2.70;;
5014;SDS011;2526;51.060;4.228;2023-07-16T08:30:29;5.43;;;2.45;;
5014;SDS011;2526;51.060;4.228;2023-07-16T08:32:54;9.05;;;3.30;;
5014;SDS011;2526;51.060;4.228;2023-07-16T08:35:19;9.13;;;3.95;;
5014;SDS011;2526;51.060;4.228;2023-07-16T08:37:45;8.88;;;3.40;;
5014;SDS011;2526;51.060;4.228;2023-07-16T08:40:14;4.43;;;2.80;;
5014;SDS011;2526;51.060;4.228;2023-07-16T08:42:39;6.55;;;2.38;;
5014;SDS011;2526;51.060;4.228;2023-07-16T08:45:09;7.82;;;2.78;;
5014;SDS011;2526;51.060;4.228;2023-07-16T08:47:35;13.32;;;3.47;;
5014;SDS011;2526;51.060;4.228;2023-07-16T08:50:01;6.18;;;3.00;;
5014;SDS011;2526;51.060;4.228;2023-07-16T08:52:27;7.85;;;3.08;;
5014;SDS011;2526;51.060;4.228;2023-07-16T08:54:53;5.88;;;3.85;;
5014;SDS011;2526;51.060;4.228;2023-07-16T08:57:18;9.73;;;3.55;;
5014;SDS011;2526;51.060;4.228;2023-07-16T08:59:46;15.60;;;3.42;;
5014;SDS011;2526;51.060;4.228;2023-07-16T09:02:14;8.93;;;3.38;;
5014;SDS011;2526;51.060;4.228;2023-07-16T09:04:40;4.97;;;2.05;;
5014;SDS011;2526;51.060;4.228;2023-07-16T09:07:06;6.75;;;2.83;;
5014;SDS011;2526;51.060;4.228;2023-07-16T09:09:31;4.35;;;2.65;;
5014;SDS011;2526;51.060;4.228;2023-07-16T09:11:57;4.40;;;2.38;;
5014;SDS011;2526;51.060;4.228;2023-07-16T09:14:23;8.63;;;3.20;;
5014;SDS011;2526;51.060;4.228;2023-07-16T09:16:52;11.38;;;2.92;;
5014;SDS011;2526;51.060;4.228;2023-07-16T09:19:18;3.30;;;2.30;;
5014;SDS011;2526;51.060;4.228;2023-07-16T09:21:48;4.50;;;2.28;;
5014;SDS011;2526;51.060;4.228;2023-07-16T09:24:14;7.05;;;2.28;;
5014;SDS011;2526;51.060;4.228;2023-07-16T09:26:47;13.10;;;3.58;;
5014;SDS011;2526;51.060;4.228;2023-07-16T09:29:14;4.78;;;2.08;;
5014;SDS011;2526;51.060;4.228;2023-07-16T09:31:52;5.68;;;2.97;;
5014;SDS011;2526;51.060;4.228;2023-07-16T09:34:18;9.68;;;3.60;;
5014;SDS011;2526;51.060;4.228;2023-07-16T09:36:46;9.90;;;2.63;;
5014;SDS011;2526;51.060;4.228;2023-07-16T09:39:12;8.50;;;2.63;;
5014;SDS011;2526;51.060;4.228;2023-07-16T09:41:38;6.18;;;3.67;;
5014;SDS011;2526;51.060;4.228;2023-07-16T09:44:03;7.20;;;3.22;;
5014;SDS011;2526;51.060;4.228;2023-07-16T09:46:29;7.00;;;3.13;;
5014;SDS011;2526;51.060;4.228;2023-07-16T09:48:55;11.63;;;3.13;;
5014;SDS011;2526;51.060;4.228;2023-07-16T09:51:20;7.45;;;3.10;;
5014;SDS011;2526;51.060;4.228;2023-07-16T09:53:46;6.05;;;3.25;;
5014;SDS011;2526;51.060;4.228;2023-07-16T09:56:11;11.75;;;3.55;;
5014;SDS011;2526;51.060;4.228;2023-07-16T09:58:37;8.18;;;4.13;;
5014;SDS011;2526;51.060;4.228;2023-07-16T10:01:03;5.30;;;2.45;;
5014;SDS011;2526;51.060;4.228;2023-07-16T10:03:30;8.30;;;3.80;;
5014;SDS011;2526;51.060;4.228;2023-07-16T10:06:05;6.43;;;3.58;;
5014;SDS011;2526;51.060;4.228;2023-07-16T10:08:33;8.88;;;2.75;;
5014;SDS011;2526;51.060;4.228;2023-07-16T10:10:59;7.80;;;2.22;;
5014;SDS011;2526;51.060;4.228;2023-07-16T10:13:26;6.68;;;2.70;;
5014;SDS011;2526;51.060;4.228;2023-07-16T10:15:52;10.50;;;2.95;;
5014;SDS011;2526;51.060;4.228;2023-07-16T10:18:27;10.95;;;4.25;;
5014;SDS011;2526;51.060;4.228;2023-07-16T10:20:59;5.70;;;2.42;;
5014;SDS011;2526;51.060;4.228;2023-07-16T10:23:25;5.05;;;2.92;;
5014;SDS011;2526;51.060;4.228;2023-07-16T10:25:57;6.40;;;3.05;;
5014;SDS011;2526;51.060;4.228;2023-07-16T10:28:23;9.75;;;2.92;;
5014;SDS011;2526;51.060;4.228;2023-07-16T10:30:49;2.80;;;1.45;;
5014;SDS011;2526;51.060;4.228;2023-07-16T10:33:15;6.20;;;2.38;;
5014;SDS011;2526;51.060;4.228;2023-07-16T10:35:44;2.15;;;1.63;;
5014;SDS011;2526;51.060;4.228;2023-07-16T10:38:10;5.53;;;2.45;;
5014;SDS011;2526;51.060;4.228;2023-07-16T10:40:45;11.15;;;3.08;;
5014;SDS011;2526;51.060;4.228;2023-07-16T10:43:11;4.97;;;2.00;;
5014;SDS011;2526;51.060;4.228;2023-07-16T10:45:38;7.45;;;2.17;;
5014;SDS011;2526;51.060;4.228;2023-07-16T10:48:04;1.85;;;1.50;;
5014;SDS011;2526;51.060;4.228;2023-07-16T10:50:33;8.98;;;2.33;;
5014;SDS011;2526;51.060;4.228;2023-07-16T10:53:02;6.00;;;2.30;;
5014;SDS011;2526;51.060;4.228;2023-07-16T10:55:29;4.90;;;1.67;;
5014;SDS011;2526;51.060;4.228;2023-07-16T10:57:55;14.55;;;2.83;;
5014;SDS011;2526;51.060;4.228;2023-07-16T11:00:21;4.32;;;2.55;;
5014;SDS011;2526;51.060;4.228;2023-07-16T11:02:47;4.90;;;2.50;;
5014;SDS011;2526;51.060;4.228;2023-07-16T11:05:14;6.82;;;2.72;;
5014;SDS011;2526;51.060;4.228;2023-07-16T11:07:46;4.40;;;2.25;;
5014;SDS011;2526;51.060;4.228;2023-07-16T11:10:14;1.92;;;1.35;;
5014;SDS011;2526;51.060;4.228;2023-07-16T11:12:41;4.10;;;1.77;;
5014;SDS011;2526;51.060;4.228;2023-07-16T11:15:07;5.32;;;1.52;;
5014;SDS011;2526;51.060;4.228;2023-07-16T11:17:33;3.25;;;1.55;;
5014;SDS011;2526;51.060;4.228;2023-07-16T11:19:59;2.40;;;1.27;;
5014;SDS011;2526;51.060;4.228;2023-07-16T11:22:25;6.03;;;1.80;;
5014;SDS011;2526;51.060;4.228;2023-07-16T11:24:55;3.08;;;1.42;;
5014;SDS011;2526;51.060;4.228;2023-07-16T11:27:22;5.13;;;1.35;;
5014;SDS011;2526;51.060;4.228;2023-07-16T11:29:48;2.10;;;1.40;;
5014;SDS011;2526;51.060;4.228;2023-07-16T11:32:25;3.35;;;1.42;;
5014;SDS011;2526;51.060;4.228;2023-07-16T11:34:52;4.80;;;1.25;;
5014;SDS011;2526;51.060;4.228;2023-07-16T11:37:18;3.35;;;1.42;;
5014;SDS011;2526;51.060;4.228;2023-07-16T11:39:43;2.08;;;1.23;;
5014;SDS011;2526;51.060;4.228;2023-07-16T11:42:09;7.07;;;2.30;;
5014;SDS011;2526;51.060;4.228;2023-07-16T11:44:35;1.88;;;1.35;;
5014;SDS011;2526;51.060;4.228;2023-07-16T11:47:01;2.90;;;1.65;;
5014;SDS011;2526;51.060;4.228;2023-07-16T11:49:28;2.55;;;1.67;;
5014;SDS011;2526;51.060;4.228;2023-07-16T11:51:53;3.10;;;1.20;;
5014;SDS011;2526;51.060;4.228;2023-07-16T11:54:19;2.92;;;1.48;;
5014;SDS011;2526;51.060;4.228;2023-07-16T11:56:44;4.13;;;2.00;;
5014;SDS011;2526;51.060;4.228;2023-07-16T11:59:11;4.82;;;1.80;;
5014;SDS011;2526;51.060;4.228;2023-07-16T12:01:37;3.33;;;1.42;;
5014;SDS011;2526;51.060;4.228;2023-07-16T12:04:02;2.78;;;1.42;;
5014;SDS011;2526;51.060;4.228;2023-07-16T12:06:28;4.57;;;1.98;;
5014;SDS011;2526;51.060;4.228;2023-07-16T12:08:53;3.92;;;1.48;;
5014;SDS011;2526;51.060;4.228;2023-07-16T12:11:20;3.95;;;1.63;;
5014;SDS011;2526;51.060;4.228;2023-07-16T12:13:46;5.28;;;1.65;;
5014;SDS011;2526;51.060;4.228;2023-07-16T12:16:11;13.05;;;2.65;;
5014;SDS011;2526;51.060;4.228;2023-07-16T12:18:36;2.92;;;1.33;;
5014;SDS011;2526;51.060;4.228;2023-07-16T12:21:03;2.35;;;1.70;;
5014;SDS011;2526;51.060;4.228;2023-07-16T12:23:34;4.07;;;1.30;;
5014;SDS011;2526;51.060;4.228;2023-07-16T12:25:59;3.55;;;1.58;;
5014;SDS011;2526;51.060;4.228;2023-07-16T12:28:25;4.80;;;1.50;;
5014;SDS011;2526;51.060;4.228;2023-07-16T12:30:50;5.45;;;1.48;;
5014;SDS011;2526;51.060;4.228;2023-07-16T12:33:15;3.83;;;1.70;;
5014;SDS011;2526;51.060;4.228;2023-07-16T12:35:41;4.75;;;1.92;;
5014;SDS011;2526;51.060;4.228;2023-07-16T12:38:06;4.35;;;1.40;;
5014;SDS011;2526;51.060;4.228;2023-07-16T12:40:33;4.30;;;0.73;;
5014;SDS011;2526;51.060;4.228;2023-07-16T12:43:05;8.07;;;2.15;;
5014;SDS011;2526;51.060;4.228;2023-07-16T12:45:30;2.40;;;1.10;;
5014;SDS011;2526;51.060;4.228;2023-07-16T12:47:55;6.00;;;2.28;;
5014;SDS011;2526;51.060;4.228;2023-07-16T12:50:22;2.78;;;1.42;;
5014;SDS011;2526;51.060;4.228;2023-07-16T12:52:48;1.67;;;1.58;;
5014;SDS011;2526;51.060;4.228;2023-07-16T12:55:14;6.25;;;2.40;;
5014;SDS011;2526;51.060;4.228;2023-07-16T12:57:40;3.92;;;1.42;;
5014;SDS011;2526;51.060;4.228;2023-07-16T13:00:05;3.65;;;1.38;;
5014;SDS011;2526;51.060;4.228;2023-07-16T13:02:32;6.93;;;1.95;;
5014;SDS011;2526;51.060;4.228;2023-07-16T13:04:58;5.97;;;1.35;;
5014;SDS011;2526;51.060;4.228;2023-07-16T13:07:23;3.20;;;1.52;;
5014;SDS011;2526;51.060;4.228;2023-07-16T13:09:48;2.45;;;1.17;;
5014;SDS011;2526;51.060;4.228;2023-07-16T13:12:14;4.30;;;1.58;;
5014;SDS011;2526;51.060;4.228;2023-07-16T13:14:39;2.55;;;1.50;;
5014;SDS011;2526;51.060;4.228;2023-07-16T13:17:05;6.03;;;1.92;;
5014;SDS011;2526;51.060;4.228;2023-07-16T13:19:31;5.07;;;2.25;;
5014;SDS011;2526;51.060;4.228;2023-07-16T13:21:57;6.47;;;2.05;;
5014;SDS011;2526;51.060;4.228;2023-07-16T13:24:22;2.88;;;1.35;;
5014;SDS011;2526;51.060;4.228;2023-07-16T13:26:48;3.65;;;1.48;;
5014;SDS011;2526;51.060;4.228;2023-07-16T13:29:22;3.15;;;0.90;;
5014;SDS011;2526;51.060;4.228;2023-07-16T13:31:48;1.48;;;0.75;;
5014;SDS011;2526;51.060;4.228;2023-07-16T13:34:14;1.55;;;0.75;;
5014;SDS011;2526;51.060;4.228;2023-07-16T13:36:40;1.00;;;0.55;;
5014;SDS011;2526;51.060;4.228;2023-07-16T13:39:05;0.88;;;0.50;;
5014;SDS011;2526;51.060;4.228;2023-07-16T13:41:31;1.13;;;0.68;;
5014;SDS011;2526;51.060;4.228;2023-07-16T13:43:58;0.65;;;0.52;;
5014;SDS011;2526;51.060;4.228;2023-07-16T13:46:24;0.40;;;0.40;;
5014;SDS011;2526;51.060;4.228;2023-07-16T13:48:49;2.72;;;0.75;;
5014;SDS011;2526;51.060;4.228;2023-07-16T13:51:15;0.57;;;0.50;;
5014;SDS011;2526;51.060;4.228;2023-07-16T13:53:40;1.70;;;1.00;;
5014;SDS011;2526;51.060;4.228;2023-07-16T13:56:06;7.30;;;0.93;;
5014;SDS011;2526;51.060;4.228;2023-07-16T13:58:33;1.33;;;0.52;;
5014;SDS011;2526;51.060;4.228;2023-07-16T14:00:59;1.13;;;0.57;;
5014;SDS011;2526;51.060;4.228;2023-07-16T14:03:25;0.52;;;0.52;;
5014;SDS011;2526;51.060;4.228;2023-07-16T14:05:51;0.55;;;0.40;;
5014;SDS011;2526;51.060;4.228;2023-07-16T14:08:17;3.22;;;0.52;;
5014;SDS011;2526;51.060;4.228;2023-07-16T14:10:43;0.43;;;0.32;;
5014;SDS011;2526;51.060;4.228;2023-07-16T14:13:09;1.65;;;0.30;;
5014;SDS011;2526;51.060;4.228;2023-07-16T14:15:34;0.32;;;0.17;;
5014;SDS011;2526;51.060;4.228;2023-07-16T14:18:00;0.52;;;0.40;;
5014;SDS011;2526;51.060;4.228;2023-07-16T14:20:25;1.63;;;0.57;;
5014;SDS011;2526;51.060;4.228;2023-07-16T14:22:51;2.38;;;0.40;;
5014;SDS011;2526;51.060;4.228;2023-07-16T14:25:16;0.65;;;0.43;;
5014;SDS011;2526;51.060;4.228;2023-07-16T14:27:43;0.75;;;0.30;;
5014;SDS011;2526;51.060;4.228;2023-07-16T14:30:10;1.65;;;0.65;;
5014;SDS011;2526;51.060;4.228;2023-07-16T14:32:37;2.03;;;0.68;;
5014;SDS011;2526;51.060;4.228;2023-07-16T14:35:02;2.80;;;0.70;;
5014;SDS011;2526;51.060;4.228;2023-07-16T14:37:29;3.72;;;0.60;;
5014;SDS011;2526;51.060;4.228;2023-07-16T14:39:54;1.90;;;0.75;;
5014;SDS011;2526;51.060;4.228;2023-07-16T14:42:20;0.40;;;0.40;;
5014;SDS011;2526;51.060;4.228;2023-07-16T14:44:45;2.20;;;0.65;;
5014;SDS011;2526;51.060;4.228;2023-07-16T14:47:11;0.47;;;0.45;;
5014;SDS011;2526;51.060;4.228;2023-07-16T14:49:36;1.92;;;0.55;;
5014;SDS011;2526;51.060;4.228;2023-07-16T14:52:03;2.03;;;0.95;;
5014;SDS011;2526;51.060;4.228;2023-07-16T14:54:28;4.35;;;0.50;;
5014;SDS011;2526;51.060;4.228;2023-07-16T14:56:54;5.15;;;0.93;;
5014;SDS011;2526;51.060;4.228;2023-07-16T14:59:19;0.90;;;0.60;;
5014;SDS011;2526;51.060;4.228;2023-07-16T15:01:46;4.85;;;0.95;;
5014;SDS011;2526;51.060;4.228;2023-07-16T15:04:11;2.25;;;0.70;;
5014;SDS011;2526;51.060;4.228;2023-07-16T15:06:37;0.65;;;0.20;;
5014;SDS011;2526;51.060;4.228;2023-07-16T15:09:03;1.45;;;0.75;;
5014;SDS011;2526;51.060;4.228;2023-07-16T15:11:29;6.45;;;1.48;;
5014;SDS011;2526;51.060;4.228;2023-07-16T15:13:54;4.30;;;0.90;;